This is the latest recevied weather packets stored in our database for station/object p43g-13. If no packets are shown the sender has not sent any weather packets the latest 10 day(s).
| Time | Temp. | Humidity | Pressure | Rain* | Wind** | Luminosity | Snow |
|---|---|---|---|---|---|---|---|
| 1787681422 | 32.22° C | 73% | 1011.4 hPa | 0 mm | - | 610 W/m² | - |
| 1787681122 | 31.67° C | 73% | 1011.7 hPa | 0 mm | - | 398 W/m² | - |
| 1787680822 | 32.22° C | 71% | 1011.6 hPa | 0 mm | - | 1108 W/m² | - |
| 1787680524 | 32.22° C | 72% | 1011.8 hPa | 0 mm | - | 842 W/m² | - |
| 1787680222 | 32.78° C | 70% | 1011.3 hPa | 0 mm | - | 985 W/m² | - |
| 1787679922 | 32.22° C | 71% | 1011.8 hPa | 0 mm | - | 486 W/m² | - |
| 1787679622 | 32.22° C | 71% | 1011.7 hPa | 0 mm | - | 1022 W/m² | - |
| 1787679322 | 32.22° C | 69% | 1011.7 hPa | 0 mm | - | 1016 W/m² | - |
| 1787679022 | 31.67° C | 71% | 1011.8 hPa | 0 mm | - | 929 W/m² | - |
| 1787678722 | 32.78° C | 67% | 1011.9 hPa | 0 mm | - | 811 W/m² | - |
| 1787678422 | 32.22° C | 69% | 1012 hPa | 0 mm | - | 990 W/m² | - |
| 1787678123 | 32.22° C | 70% | 1012.3 hPa | 0 mm | - | 970 W/m² | - |
| 1787677822 | 32.22° C | 71% | 1012.1 hPa | 0 mm | - | 929 W/m² | - |
| 1787677522 | 32.78° C | 70% | 1012.3 hPa | 0 mm | - | 953 W/m² | - |
| 1787677222 | 32.22° C | 70% | 1012.3 hPa | 0 mm | - | 985 W/m² | - |
| 1787676922 | 31.67° C | 72% | 1012.3 hPa | 0 mm | - | 965 W/m² | - |
| 1787676622 | 32.22° C | 70% | 1012.5 hPa | 0 mm | - | 941 W/m² | - |
| 1787676322 | 32.22° C | 71% | 1012.7 hPa | 0 mm | - | 973 W/m² | - |
| 1787676022 | 32.22° C | 71% | 1012.5 hPa | 0 mm | - | 996 W/m² | - |
| 1787675722 | 32.78° C | 71% | 1012.7 hPa | 0 mm | - | 682 W/m² | - |
| 1787675423 | 32.78° C | 70% | 1013 hPa | 0 mm | - | 978 W/m² | - |
| 1787675122 | 32.22° C | 71% | 1013 hPa | 0 mm | - | 971 W/m² | - |
| 1787674822 | 32.78° C | 70% | 1012.8 hPa | 0 mm | - | 427 W/m² | - |
| 1787674522 | 32.22° C | 70% | 1013.2 hPa | 0 mm | - | 408 W/m² | - |
| 1787674222 | 32.22° C | 70% | 1012.9 hPa | 0 mm | - | 526 W/m² | - |
* Rain latest hour (hover to see other rain measurements)
** Current wind speed in m/s (hover to see current wind gust speed)